sensor_id;sensor_type;location;lat;lon;timestamp;P1;durP1;ratioP1;P2;durP2;ratioP2
12812;SDS011;6471;50.932;6.934;2023-11-19T00:01:51;2.20;;;1.53;;
12812;SDS011;6471;50.932;6.934;2023-11-19T00:04:17;3.77;;;2.23;;
12812;SDS011;6471;50.932;6.934;2023-11-19T00:06:43;2.23;;;1.67;;
12812;SDS011;6471;50.932;6.934;2023-11-19T00:09:09;2.00;;;1.50;;
12812;SDS011;6471;50.932;6.934;2023-11-19T00:11:35;2.27;;;1.67;;
12812;SDS011;6471;50.932;6.934;2023-11-19T00:14:01;2.30;;;1.70;;
12812;SDS011;6471;50.932;6.934;2023-11-19T00:16:27;2.27;;;1.50;;
12812;SDS011;6471;50.932;6.934;2023-11-19T00:18:53;3.53;;;1.97;;
12812;SDS011;6471;50.932;6.934;2023-11-19T00:21:19;2.97;;;1.47;;
12812;SDS011;6471;50.932;6.934;2023-11-19T00:23:45;1.80;;;1.50;;
12812;SDS011;6471;50.932;6.934;2023-11-19T00:26:11;1.77;;;1.33;;
12812;SDS011;6471;50.932;6.934;2023-11-19T00:28:40;1.80;;;1.30;;
12812;SDS011;6471;50.932;6.934;2023-11-19T00:31:06;1.43;;;1.27;;
12812;SDS011;6471;50.932;6.934;2023-11-19T00:33:32;1.20;;;1.10;;
12812;SDS011;6471;50.932;6.934;2023-11-19T00:35:58;1.43;;;1.00;;
12812;SDS011;6471;50.932;6.934;2023-11-19T00:38:24;1.83;;;1.37;;
12812;SDS011;6471;50.932;6.934;2023-11-19T00:40:50;3.07;;;1.10;;
12812;SDS011;6471;50.932;6.934;2023-11-19T00:43:16;1.20;;;1.10;;
12812;SDS011;6471;50.932;6.934;2023-11-19T00:45:43;1.50;;;1.10;;
12812;SDS011;6471;50.932;6.934;2023-11-19T00:48:09;1.40;;;1.10;;
12812;SDS011;6471;50.932;6.934;2023-11-19T00:50:35;1.50;;;1.20;;
12812;SDS011;6471;50.932;6.934;2023-11-19T00:53:01;2.43;;;1.40;;
12812;SDS011;6471;50.932;6.934;2023-11-19T00:55:28;1.53;;;1.20;;
12812;SDS011;6471;50.932;6.934;2023-11-19T00:57:55;1.53;;;1.30;;
12812;SDS011;6471;50.932;6.934;2023-11-19T01:00:21;1.50;;;1.20;;
12812;SDS011;6471;50.932;6.934;2023-11-19T01:02:49;1.67;;;1.20;;
12812;SDS011;6471;50.932;6.934;2023-11-19T01:05:15;1.07;;;0.97;;
12812;SDS011;6471;50.932;6.934;2023-11-19T01:07:42;1.40;;;1.10;;
12812;SDS011;6471;50.932;6.934;2023-11-19T01:10:08;1.40;;;1.20;;
12812;SDS011;6471;50.932;6.934;2023-11-19T01:12:35;1.97;;;1.60;;
12812;SDS011;6471;50.932;6.934;2023-11-19T01:15:01;1.50;;;1.40;;
12812;SDS011;6471;50.932;6.934;2023-11-19T01:17:27;1.83;;;1.40;;
12812;SDS011;6471;50.932;6.934;2023-11-19T01:19:53;2.50;;;1.60;;
12812;SDS011;6471;50.932;6.934;2023-11-19T01:22:20;1.60;;;1.40;;
12812;SDS011;6471;50.932;6.934;2023-11-19T01:24:46;1.83;;;1.10;;
12812;SDS011;6471;50.932;6.934;2023-11-19T01:27:12;1.30;;;1.17;;
12812;SDS011;6471;50.932;6.934;2023-11-19T01:29:38;1.30;;;1.20;;
12812;SDS011;6471;50.932;6.934;2023-11-19T01:32:04;1.20;;;1.10;;
12812;SDS011;6471;50.932;6.934;2023-11-19T01:34:30;1.13;;;1.00;;
12812;SDS011;6471;50.932;6.934;2023-11-19T01:36:57;1.40;;;1.10;;
12812;SDS011;6471;50.932;6.934;2023-11-19T01:39:23;1.10;;;1.00;;
12812;SDS011;6471;50.932;6.934;2023-11-19T01:41:49;1.00;;;0.90;;
12812;SDS011;6471;50.932;6.934;2023-11-19T01:44:15;1.40;;;1.10;;
12812;SDS011;6471;50.932;6.934;2023-11-19T01:46:42;1.67;;;1.23;;
12812;SDS011;6471;50.932;6.934;2023-11-19T01:49:10;1.30;;;1.20;;
12812;SDS011;6471;50.932;6.934;2023-11-19T01:51:37;1.40;;;1.10;;
12812;SDS011;6471;50.932;6.934;2023-11-19T01:54:03;2.33;;;1.20;;
12812;SDS011;6471;50.932;6.934;2023-11-19T01:56:29;1.50;;;1.00;;
12812;SDS011;6471;50.932;6.934;2023-11-19T01:58:56;1.50;;;1.00;;
12812;SDS011;6471;50.932;6.934;2023-11-19T02:01:22;1.67;;;1.00;;
12812;SDS011;6471;50.932;6.934;2023-11-19T02:03:49;1.63;;;0.90;;
12812;SDS011;6471;50.932;6.934;2023-11-19T02:06:15;1.30;;;1.00;;
12812;SDS011;6471;50.932;6.934;2023-11-19T02:08:41;2.10;;;1.37;;
12812;SDS011;6471;50.932;6.934;2023-11-19T02:11:08;1.37;;;1.27;;
12812;SDS011;6471;50.932;6.934;2023-11-19T02:13:35;2.17;;;1.30;;
12812;SDS011;6471;50.932;6.934;2023-11-19T02:16:03;1.67;;;1.20;;
12812;SDS011;6471;50.932;6.934;2023-11-19T02:18:29;1.33;;;1.00;;
12812;SDS011;6471;50.932;6.934;2023-11-19T02:20:56;1.80;;;1.30;;
12812;SDS011;6471;50.932;6.934;2023-11-19T02:23:22;1.70;;;1.43;;
12812;SDS011;6471;50.932;6.934;2023-11-19T02:28:17;1.90;;;1.30;;
12812;SDS011;6471;50.932;6.934;2023-11-19T02:30:43;2.57;;;1.20;;
12812;SDS011;6471;50.932;6.934;2023-11-19T02:33:09;1.27;;;1.00;;
12812;SDS011;6471;50.932;6.934;2023-11-19T02:35:35;3.97;;;1.30;;
12812;SDS011;6471;50.932;6.934;2023-11-19T02:38:01;1.80;;;1.07;;
12812;SDS011;6471;50.932;6.934;2023-11-19T02:40:31;1.50;;;1.03;;
12812;SDS011;6471;50.932;6.934;2023-11-19T02:42:58;1.37;;;1.07;;
12812;SDS011;6471;50.932;6.934;2023-11-19T02:45:24;1.50;;;1.10;;
12812;SDS011;6471;50.932;6.934;2023-11-19T02:47:51;1.67;;;1.10;;
12812;SDS011;6471;50.932;6.934;2023-11-19T02:50:18;3.10;;;1.20;;
12812;SDS011;6471;50.932;6.934;2023-11-19T02:52:50;1.10;;;1.00;;
12812;SDS011;6471;50.932;6.934;2023-11-19T02:55:16;1.17;;;0.97;;
12812;SDS011;6471;50.932;6.934;2023-11-19T02:57:43;2.90;;;1.40;;
12812;SDS011;6471;50.932;6.934;2023-11-19T03:00:15;1.90;;;1.23;;
12812;SDS011;6471;50.932;6.934;2023-11-19T03:02:42;3.37;;;1.70;;
12812;SDS011;6471;50.932;6.934;2023-11-19T03:05:13;2.60;;;1.40;;
12812;SDS011;6471;50.932;6.934;2023-11-19T03:07:40;2.67;;;1.40;;
12812;SDS011;6471;50.932;6.934;2023-11-19T03:10:07;2.37;;;1.40;;
12812;SDS011;6471;50.932;6.934;2023-11-19T03:12:34;4.50;;;1.40;;
12812;SDS011;6471;50.932;6.934;2023-11-19T03:15:00;2.33;;;1.37;;
12812;SDS011;6471;50.932;6.934;2023-11-19T03:17:26;1.50;;;1.40;;
12812;SDS011;6471;50.932;6.934;2023-11-19T03:19:52;2.50;;;1.30;;
12812;SDS011;6471;50.932;6.934;2023-11-19T03:22:18;3.10;;;1.20;;
12812;SDS011;6471;50.932;6.934;2023-11-19T03:24:45;2.23;;;1.20;;
12812;SDS011;6471;50.932;6.934;2023-11-19T03:27:12;2.60;;;1.30;;
12812;SDS011;6471;50.932;6.934;2023-11-19T03:29:38;3.07;;;1.47;;
12812;SDS011;6471;50.932;6.934;2023-11-19T03:32:04;2.93;;;1.40;;
12812;SDS011;6471;50.932;6.934;2023-11-19T03:34:30;1.73;;;1.30;;
12812;SDS011;6471;50.932;6.934;2023-11-19T03:36:56;2.83;;;1.13;;
12812;SDS011;6471;50.932;6.934;2023-11-19T03:39:22;2.47;;;1.50;;
12812;SDS011;6471;50.932;6.934;2023-11-19T03:41:50;2.87;;;1.30;;
12812;SDS011;6471;50.932;6.934;2023-11-19T03:44:16;3.83;;;1.53;;
12812;SDS011;6471;50.932;6.934;2023-11-19T03:46:43;3.30;;;1.50;;
12812;SDS011;6471;50.932;6.934;2023-11-19T03:49:09;2.53;;;1.20;;
12812;SDS011;6471;50.932;6.934;2023-11-19T03:51:35;3.47;;;1.50;;
12812;SDS011;6471;50.932;6.934;2023-11-19T03:54:01;2.17;;;1.40;;
12812;SDS011;6471;50.932;6.934;2023-11-19T03:56:27;2.17;;;1.20;;
12812;SDS011;6471;50.932;6.934;2023-11-19T03:58:53;2.23;;;1.23;;
12812;SDS011;6471;50.932;6.934;2023-11-19T04:01:19;1.83;;;1.13;;
12812;SDS011;6471;50.932;6.934;2023-11-19T04:03:45;2.73;;;1.10;;
12812;SDS011;6471;50.932;6.934;2023-11-19T04:06:11;3.57;;;1.33;;
12812;SDS011;6471;50.932;6.934;2023-11-19T04:08:37;2.23;;;1.17;;
12812;SDS011;6471;50.932;6.934;2023-11-19T04:11:04;2.90;;;1.30;;
12812;SDS011;6471;50.932;6.934;2023-11-19T04:13:33;2.23;;;1.20;;
12812;SDS011;6471;50.932;6.934;2023-11-19T04:15:59;3.47;;;1.30;;
12812;SDS011;6471;50.932;6.934;2023-11-19T04:18:26;1.80;;;1.20;;
12812;SDS011;6471;50.932;6.934;2023-11-19T04:20:52;4.50;;;1.30;;
12812;SDS011;6471;50.932;6.934;2023-11-19T04:23:18;2.70;;;1.37;;
12812;SDS011;6471;50.932;6.934;2023-11-19T04:25:44;3.57;;;1.37;;
12812;SDS011;6471;50.932;6.934;2023-11-19T04:28:10;4.17;;;1.70;;
12812;SDS011;6471;50.932;6.934;2023-11-19T04:30:36;4.03;;;1.43;;
12812;SDS011;6471;50.932;6.934;2023-11-19T04:33:02;2.87;;;1.40;;
12812;SDS011;6471;50.932;6.934;2023-11-19T04:35:29;5.20;;;1.30;;
12812;SDS011;6471;50.932;6.934;2023-11-19T04:37:55;3.27;;;1.40;;
12812;SDS011;6471;50.932;6.934;2023-11-19T04:40:22;2.50;;;1.17;;
12812;SDS011;6471;50.932;6.934;2023-11-19T04:42:48;2.67;;;1.30;;
12812;SDS011;6471;50.932;6.934;2023-11-19T04:45:15;3.07;;;1.70;;
12812;SDS011;6471;50.932;6.934;2023-11-19T04:47:41;4.40;;;1.60;;
12812;SDS011;6471;50.932;6.934;2023-11-19T04:50:07;3.37;;;1.70;;
12812;SDS011;6471;50.932;6.934;2023-11-19T04:52:38;5.60;;;1.80;;
12812;SDS011;6471;50.932;6.934;2023-11-19T04:55:10;4.60;;;1.90;;
12812;SDS011;6471;50.932;6.934;2023-11-19T04:57:39;5.10;;;1.57;;
12812;SDS011;6471;50.932;6.934;2023-11-19T05:00:06;5.03;;;1.60;;
12812;SDS011;6471;50.932;6.934;2023-11-19T05:02:33;4.30;;;1.47;;
12812;SDS011;6471;50.932;6.934;2023-11-19T05:04:59;3.27;;;1.60;;
12812;SDS011;6471;50.932;6.934;2023-11-19T05:07:25;4.00;;;1.57;;
12812;SDS011;6471;50.932;6.934;2023-11-19T05:09:51;2.83;;;1.40;;
12812;SDS011;6471;50.932;6.934;2023-11-19T05:12:17;4.27;;;1.50;;
12812;SDS011;6471;50.932;6.934;2023-11-19T05:14:43;2.87;;;1.60;;
12812;SDS011;6471;50.932;6.934;2023-11-19T05:17:14;5.23;;;1.87;;
12812;SDS011;6471;50.932;6.934;2023-11-19T05:19:40;6.37;;;1.93;;
12812;SDS011;6471;50.932;6.934;2023-11-19T05:22:06;3.03;;;1.60;;
12812;SDS011;6471;50.932;6.934;2023-11-19T05:24:32;4.60;;;1.80;;
12812;SDS011;6471;50.932;6.934;2023-11-19T05:26:59;5.80;;;1.80;;
12812;SDS011;6471;50.932;6.934;2023-11-19T05:29:25;8.90;;;2.20;;
12812;SDS011;6471;50.932;6.934;2023-11-19T05:31:52;7.60;;;1.90;;
12812;SDS011;6471;50.932;6.934;2023-11-19T05:34:19;6.10;;;1.80;;
12812;SDS011;6471;50.932;6.934;2023-11-19T05:36:46;7.23;;;2.07;;
12812;SDS011;6471;50.932;6.934;2023-11-19T05:39:12;7.13;;;1.90;;
12812;SDS011;6471;50.932;6.934;2023-11-19T05:41:39;5.23;;;2.07;;
12812;SDS011;6471;50.932;6.934;2023-11-19T05:44:05;5.00;;;1.40;;
12812;SDS011;6471;50.932;6.934;2023-11-19T05:46:31;9.07;;;2.40;;
12812;SDS011;6471;50.932;6.934;2023-11-19T05:48:57;8.53;;;2.20;;
12812;SDS011;6471;50.932;6.934;2023-11-19T05:51:23;5.53;;;1.90;;
12812;SDS011;6471;50.932;6.934;2023-11-19T05:53:50;7.53;;;2.20;;
12812;SDS011;6471;50.932;6.934;2023-11-19T05:56:16;6.13;;;1.93;;
12812;SDS011;6471;50.932;6.934;2023-11-19T05:58:46;8.77;;;2.10;;
12812;SDS011;6471;50.932;6.934;2023-11-19T06:01:14;7.83;;;2.00;;
12812;SDS011;6471;50.932;6.934;2023-11-19T06:03:40;8.37;;;2.17;;
12812;SDS011;6471;50.932;6.934;2023-11-19T06:06:08;6.43;;;1.90;;
12812;SDS011;6471;50.932;6.934;2023-11-19T06:08:34;4.17;;;1.90;;
12812;SDS011;6471;50.932;6.934;2023-11-19T06:11:00;7.33;;;2.00;;
12812;SDS011;6471;50.932;6.934;2023-11-19T06:13:26;7.33;;;2.30;;
12812;SDS011;6471;50.932;6.934;2023-11-19T06:15:55;8.03;;;2.30;;
12812;SDS011;6471;50.932;6.934;2023-11-19T06:18:21;8.97;;;2.40;;
12812;SDS011;6471;50.932;6.934;2023-11-19T06:20:48;10.83;;;2.87;;
12812;SDS011;6471;50.932;6.934;2023-11-19T06:23:14;10.03;;;2.37;;
12812;SDS011;6471;50.932;6.934;2023-11-19T06:25:41;10.60;;;2.63;;
12812;SDS011;6471;50.932;6.934;2023-11-19T06:28:07;10.57;;;2.90;;
12812;SDS011;6471;50.932;6.934;2023-11-19T06:30:33;9.67;;;2.50;;
12812;SDS011;6471;50.932;6.934;2023-11-19T06:33:01;8.57;;;2.57;;
12812;SDS011;6471;50.932;6.934;2023-11-19T06:35:28;12.13;;;2.73;;
12812;SDS011;6471;50.932;6.934;2023-11-19T06:38:00;11.47;;;2.60;;
12812;SDS011;6471;50.932;6.934;2023-11-19T06:40:26;10.63;;;2.30;;
12812;SDS011;6471;50.932;6.934;2023-11-19T06:42:55;9.97;;;2.33;;
12812;SDS011;6471;50.932;6.934;2023-11-19T06:45:21;10.73;;;2.40;;
12812;SDS011;6471;50.932;6.934;2023-11-19T06:47:47;6.93;;;2.00;;
12812;SDS011;6471;50.932;6.934;2023-11-19T06:50:13;9.80;;;2.50;;
12812;SDS011;6471;50.932;6.934;2023-11-19T06:52:40;8.90;;;2.23;;
12812;SDS011;6471;50.932;6.934;2023-11-19T06:55:06;7.97;;;2.30;;
12812;SDS011;6471;50.932;6.934;2023-11-19T06:57:32;8.93;;;2.63;;
12812;SDS011;6471;50.932;6.934;2023-11-19T06:59:58;7.10;;;2.30;;
12812;SDS011;6471;50.932;6.934;2023-11-19T07:02:25;10.47;;;2.60;;
12812;SDS011;6471;50.932;6.934;2023-11-19T07:04:51;8.83;;;2.63;;
12812;SDS011;6471;50.932;6.934;2023-11-19T07:07:17;9.10;;;2.77;;
12812;SDS011;6471;50.932;6.934;2023-11-19T07:09:43;6.67;;;2.10;;
12812;SDS011;6471;50.932;6.934;2023-11-19T07:12:09;7.47;;;2.33;;
12812;SDS011;6471;50.932;6.934;2023-11-19T07:14:35;7.43;;;2.00;;
12812;SDS011;6471;50.932;6.934;2023-11-19T07:17:02;7.77;;;2.27;;
12812;SDS011;6471;50.932;6.934;2023-11-19T07:19:31;7.03;;;2.10;;
12812;SDS011;6471;50.932;6.934;2023-11-19T07:21:57;8.57;;;2.40;;
12812;SDS011;6471;50.932;6.934;2023-11-19T07:24:23;13.07;;;2.67;;
12812;SDS011;6471;50.932;6.934;2023-11-19T07:26:49;8.50;;;2.60;;
12812;SDS011;6471;50.932;6.934;2023-11-19T07:29:15;8.30;;;2.20;;
12812;SDS011;6471;50.932;6.934;2023-11-19T07:31:45;6.77;;;2.30;;
12812;SDS011;6471;50.932;6.934;2023-11-19T07:34:11;6.97;;;2.20;;
12812;SDS011;6471;50.932;6.934;2023-11-19T07:36:39;8.10;;;2.67;;
12812;SDS011;6471;50.932;6.934;2023-11-19T07:39:05;8.57;;;2.43;;
12812;SDS011;6471;50.932;6.934;2023-11-19T07:41:32;9.83;;;2.50;;
12812;SDS011;6471;50.932;6.934;2023-11-19T07:43:58;9.30;;;2.37;;
12812;SDS011;6471;50.932;6.934;2023-11-19T07:46:24;8.53;;;2.57;;
12812;SDS011;6471;50.932;6.934;2023-11-19T07:48:50;6.90;;;2.40;;
12812;SDS011;6471;50.932;6.934;2023-11-19T07:51:16;9.33;;;2.40;;
12812;SDS011;6471;50.932;6.934;2023-11-19T07:53:42;12.47;;;4.83;;
12812;SDS011;6471;50.932;6.934;2023-11-19T07:56:08;11.97;;;5.07;;
12812;SDS011;6471;50.932;6.934;2023-11-19T07:58:35;8.87;;;3.93;;
12812;SDS011;6471;50.932;6.934;2023-11-19T08:01:01;10.20;;;3.40;;
12812;SDS011;6471;50.932;6.934;2023-11-19T08:03:28;6.13;;;2.60;;
12812;SDS011;6471;50.932;6.934;2023-11-19T08:05:59;9.50;;;2.73;;
12812;SDS011;6471;50.932;6.934;2023-11-19T08:08:26;11.37;;;6.80;;
12812;SDS011;6471;50.932;6.934;2023-11-19T08:10:54;10.07;;;4.87;;
12812;SDS011;6471;50.932;6.934;2023-11-19T08:13:21;9.47;;;3.77;;
12812;SDS011;6471;50.932;6.934;2023-11-19T08:15:50;8.47;;;3.07;;
12812;SDS011;6471;50.932;6.934;2023-11-19T08:18:16;9.97;;;3.13;;
12812;SDS011;6471;50.932;6.934;2023-11-19T08:20:43;8.60;;;2.90;;
12812;SDS011;6471;50.932;6.934;2023-11-19T08:23:10;7.50;;;2.63;;
12812;SDS011;6471;50.932;6.934;2023-11-19T08:25:36;6.37;;;2.30;;
12812;SDS011;6471;50.932;6.934;2023-11-19T08:28:02;6.53;;;2.40;;
12812;SDS011;6471;50.932;6.934;2023-11-19T08:30:32;8.23;;;2.30;;
12812;SDS011;6471;50.932;6.934;2023-11-19T08:32:58;5.03;;;2.30;;
12812;SDS011;6471;50.932;6.934;2023-11-19T08:35:27;6.17;;;2.17;;
12812;SDS011;6471;50.932;6.934;2023-11-19T08:37:53;6.83;;;2.20;;
12812;SDS011;6471;50.932;6.934;2023-11-19T08:40:19;4.93;;;2.00;;
12812;SDS011;6471;50.932;6.934;2023-11-19T08:42:45;7.70;;;2.30;;
12812;SDS011;6471;50.932;6.934;2023-11-19T08:45:12;8.33;;;2.13;;
12812;SDS011;6471;50.932;6.934;2023-11-19T08:47:38;10.97;;;2.80;;
12812;SDS011;6471;50.932;6.934;2023-11-19T08:50:05;10.03;;;2.63;;
12812;SDS011;6471;50.932;6.934;2023-11-19T08:52:31;7.83;;;2.30;;
12812;SDS011;6471;50.932;6.934;2023-11-19T08:54:57;9.20;;;2.37;;
12812;SDS011;6471;50.932;6.934;2023-11-19T08:57:23;8.00;;;2.23;;
12812;SDS011;6471;50.932;6.934;2023-11-19T08:59:50;10.03;;;2.50;;
12812;SDS011;6471;50.932;6.934;2023-11-19T09:02:16;8.97;;;2.30;;
12812;SDS011;6471;50.932;6.934;2023-11-19T09:04:45;7.57;;;2.37;;
12812;SDS011;6471;50.932;6.934;2023-11-19T09:07:11;7.17;;;2.30;;
12812;SDS011;6471;50.932;6.934;2023-11-19T09:09:37;7.10;;;2.40;;
12812;SDS011;6471;50.932;6.934;2023-11-19T09:12:03;5.37;;;1.80;;
12812;SDS011;6471;50.932;6.934;2023-11-19T09:14:30;5.07;;;2.00;;
12812;SDS011;6471;50.932;6.934;2023-11-19T09:16:56;11.90;;;2.70;;
12812;SDS011;6471;50.932;6.934;2023-11-19T09:19:23;10.00;;;2.73;;
12812;SDS011;6471;50.932;6.934;2023-11-19T09:21:49;8.43;;;2.87;;
12812;SDS011;6471;50.932;6.934;2023-11-19T09:24:15;9.50;;;2.50;;
12812;SDS011;6471;50.932;6.934;2023-11-19T09:26:41;8.87;;;2.30;;
12812;SDS011;6471;50.932;6.934;2023-11-19T09:29:08;8.47;;;2.27;;
12812;SDS011;6471;50.932;6.934;2023-11-19T09:31:34;8.40;;;2.40;;
12812;SDS011;6471;50.932;6.934;2023-11-19T09:34:00;9.10;;;2.47;;
12812;SDS011;6471;50.932;6.934;2023-11-19T09:36:26;7.23;;;2.20;;
12812;SDS011;6471;50.932;6.934;2023-11-19T09:38:52;6.80;;;2.50;;
12812;SDS011;6471;50.932;6.934;2023-11-19T09:41:18;6.93;;;1.93;;
12812;SDS011;6471;50.932;6.934;2023-11-19T09:43:45;7.27;;;1.90;;
12812;SDS011;6471;50.932;6.934;2023-11-19T09:46:14;8.33;;;2.80;;
12812;SDS011;6471;50.932;6.934;2023-11-19T09:48:41;8.63;;;2.97;;
12812;SDS011;6471;50.932;6.934;2023-11-19T09:51:11;8.90;;;2.67;;
12812;SDS011;6471;50.932;6.934;2023-11-19T09:53:37;8.77;;;2.80;;
12812;SDS011;6471;50.932;6.934;2023-11-19T09:56:04;7.27;;;2.30;;
12812;SDS011;6471;50.932;6.934;2023-11-19T09:58:30;9.30;;;2.60;;
12812;SDS011;6471;50.932;6.934;2023-11-19T10:00:57;8.13;;;2.23;;
12812;SDS011;6471;50.932;6.934;2023-11-19T10:03:32;8.37;;;2.30;;
12812;SDS011;6471;50.932;6.934;2023-11-19T10:05:59;8.17;;;2.87;;
12812;SDS011;6471;50.932;6.934;2023-11-19T10:08:26;5.53;;;1.80;;
12812;SDS011;6471;50.932;6.934;2023-11-19T10:10:52;7.27;;;2.40;;
12812;SDS011;6471;50.932;6.934;2023-11-19T10:13:18;7.33;;;2.30;;
12812;SDS011;6471;50.932;6.934;2023-11-19T10:15:44;7.80;;;2.37;;
12812;SDS011;6471;50.932;6.934;2023-11-19T10:18:11;10.20;;;2.77;;
12812;SDS011;6471;50.932;6.934;2023-11-19T10:20:40;7.77;;;2.53;;
12812;SDS011;6471;50.932;6.934;2023-11-19T10:23:06;7.83;;;2.30;;
12812;SDS011;6471;50.932;6.934;2023-11-19T10:25:33;8.00;;;2.37;;
12812;SDS011;6471;50.932;6.934;2023-11-19T10:27:59;12.13;;;3.03;;
12812;SDS011;6471;50.932;6.934;2023-11-19T10:30:26;11.30;;;2.90;;
12812;SDS011;6471;50.932;6.934;2023-11-19T10:33:09;9.40;;;2.43;;
12812;SDS011;6471;50.932;6.934;2023-11-19T10:38:18;8.67;;;2.33;;
12812;SDS011;6471;50.932;6.934;2023-11-19T10:40:44;11.20;;;2.80;;
12812;SDS011;6471;50.932;6.934;2023-11-19T10:43:10;12.17;;;2.97;;
12812;SDS011;6471;50.932;6.934;2023-11-19T10:45:37;10.37;;;2.80;;
12812;SDS011;6471;50.932;6.934;2023-11-19T10:48:04;7.37;;;2.27;;
12812;SDS011;6471;50.932;6.934;2023-11-19T10:50:33;10.33;;;2.60;;
12812;SDS011;6471;50.932;6.934;2023-11-19T10:53:00;8.93;;;2.40;;
12812;SDS011;6471;50.932;6.934;2023-11-19T10:55:30;7.60;;;2.63;;
12812;SDS011;6471;50.932;6.934;2023-11-19T10:57:58;6.43;;;2.40;;
12812;SDS011;6471;50.932;6.934;2023-11-19T11:00:24;5.63;;;2.10;;
12812;SDS011;6471;50.932;6.934;2023-11-19T11:02:52;8.70;;;2.60;;
12812;SDS011;6471;50.932;6.934;2023-11-19T11:05:20;7.93;;;2.40;;
12812;SDS011;6471;50.932;6.934;2023-11-19T11:07:47;7.23;;;2.47;;
12812;SDS011;6471;50.932;6.934;2023-11-19T11:10:16;5.37;;;2.07;;
12812;SDS011;6471;50.932;6.934;2023-11-19T11:12:42;8.30;;;2.43;;
12812;SDS011;6471;50.932;6.934;2023-11-19T11:15:10;9.20;;;2.63;;
12812;SDS011;6471;50.932;6.934;2023-11-19T11:17:40;8.77;;;2.60;;
12812;SDS011;6471;50.932;6.934;2023-11-19T11:20:07;7.13;;;2.30;;
12812;SDS011;6471;50.932;6.934;2023-11-19T11:22:35;12.23;;;2.87;;
12812;SDS011;6471;50.932;6.934;2023-11-19T11:30:13;7.07;;;2.33;;
12812;SDS011;6471;50.932;6.934;2023-11-19T11:32:45;5.07;;;2.23;;
12812;SDS011;6471;50.932;6.934;2023-11-19T11:37:45;8.60;;;2.30;;
12812;SDS011;6471;50.932;6.934;2023-11-19T11:40:16;7.00;;;2.27;;
12812;SDS011;6471;50.932;6.934;2023-11-19T11:42:43;7.50;;;2.30;;
12812;SDS011;6471;50.932;6.934;2023-11-19T11:45:12;6.87;;;2.50;;
12812;SDS011;6471;50.932;6.934;2023-11-19T11:55:28;5.00;;;2.23;;
12812;SDS011;6471;50.932;6.934;2023-11-19T11:57:57;11.23;;;5.00;;
12812;SDS011;6471;50.932;6.934;2023-11-19T12:00:30;7.90;;;3.50;;
12812;SDS011;6471;50.932;6.934;2023-11-19T12:02:56;8.33;;;2.43;;
12812;SDS011;6471;50.932;6.934;2023-11-19T12:05:23;6.13;;;2.10;;
12812;SDS011;6471;50.932;6.934;2023-11-19T12:07:55;7.77;;;2.37;;
12812;SDS011;6471;50.932;6.934;2023-11-19T12:10:25;5.30;;;2.07;;
12812;SDS011;6471;50.932;6.934;2023-11-19T12:12:58;5.77;;;2.33;;
12812;SDS011;6471;50.932;6.934;2023-11-19T12:15:24;8.90;;;2.60;;
12812;SDS011;6471;50.932;6.934;2023-11-19T12:17:53;5.77;;;2.10;;
12812;SDS011;6471;50.932;6.934;2023-11-19T12:20:23;6.07;;;2.13;;
12812;SDS011;6471;50.932;6.934;2023-11-19T12:22:49;6.90;;;2.17;;
12812;SDS011;6471;50.932;6.934;2023-11-19T12:25:16;8.00;;;2.10;;
12812;SDS011;6471;50.932;6.934;2023-11-19T12:27:46;9.93;;;2.80;;
12812;SDS011;6471;50.932;6.934;2023-11-19T12:30:16;8.03;;;2.10;;
12812;SDS011;6471;50.932;6.934;2023-11-19T12:32:43;8.70;;;2.60;;
12812;SDS011;6471;50.932;6.934;2023-11-19T12:35:09;6.93;;;2.30;;
12812;SDS011;6471;50.932;6.934;2023-11-19T12:40:14;8.07;;;2.87;;
12812;SDS011;6471;50.932;6.934;2023-11-19T12:42:42;7.13;;;2.43;;
12812;SDS011;6471;50.932;6.934;2023-11-19T12:45:08;7.00;;;2.40;;
12812;SDS011;6471;50.932;6.934;2023-11-19T12:47:38;6.93;;;1.87;;
12812;SDS011;6471;50.932;6.934;2023-11-19T12:50:05;7.67;;;2.30;;
12812;SDS011;6471;50.932;6.934;2023-11-19T12:52:32;12.27;;;5.97;;
12812;SDS011;6471;50.932;6.934;2023-11-19T12:54:58;10.53;;;4.07;;
12812;SDS011;6471;50.932;6.934;2023-11-19T12:57:40;6.70;;;3.07;;
12812;SDS011;6471;50.932;6.934;2023-11-19T13:00:08;5.37;;;2.17;;
12812;SDS011;6471;50.932;6.934;2023-11-19T13:02:47;5.60;;;2.60;;
12812;SDS011;6471;50.932;6.934;2023-11-19T13:05:20;6.73;;;2.00;;
12812;SDS011;6471;50.932;6.934;2023-11-19T13:07:46;6.13;;;2.00;;
12812;SDS011;6471;50.932;6.934;2023-11-19T13:10:12;6.10;;;1.90;;
12812;SDS011;6471;50.932;6.934;2023-11-19T13:12:38;5.57;;;2.00;;
12812;SDS011;6471;50.932;6.934;2023-11-19T13:15:05;5.87;;;1.77;;
12812;SDS011;6471;50.932;6.934;2023-11-19T13:17:31;5.90;;;1.80;;
12812;SDS011;6471;50.932;6.934;2023-11-19T13:19:57;4.13;;;1.87;;
12812;SDS011;6471;50.932;6.934;2023-11-19T13:22:23;5.73;;;1.77;;
12812;SDS011;6471;50.932;6.934;2023-11-19T13:24:49;6.43;;;2.27;;
12812;SDS011;6471;50.932;6.934;2023-11-19T13:27:15;12.33;;;2.40;;
12812;SDS011;6471;50.932;6.934;2023-11-19T13:29:41;7.87;;;2.40;;
12812;SDS011;6471;50.932;6.934;2023-11-19T13:32:07;9.77;;;2.60;;
12812;SDS011;6471;50.932;6.934;2023-11-19T13:34:33;6.67;;;2.20;;
12812;SDS011;6471;50.932;6.934;2023-11-19T13:36:59;5.57;;;2.07;;
12812;SDS011;6471;50.932;6.934;2023-11-19T13:39:25;7.47;;;2.53;;
12812;SDS011;6471;50.932;6.934;2023-11-19T13:41:52;8.07;;;2.40;;
12812;SDS011;6471;50.932;6.934;2023-11-19T13:44:18;8.07;;;2.20;;
12812;SDS011;6471;50.932;6.934;2023-11-19T13:46:44;9.37;;;2.40;;
12812;SDS011;6471;50.932;6.934;2023-11-19T13:49:12;9.67;;;3.03;;
12812;SDS011;6471;50.932;6.934;2023-11-19T13:51:38;5.63;;;2.03;;
12812;SDS011;6471;50.932;6.934;2023-11-19T13:54:04;10.73;;;2.80;;
12812;SDS011;6471;50.932;6.934;2023-11-19T13:56:30;7.63;;;2.20;;
12812;SDS011;6471;50.932;6.934;2023-11-19T13:58:56;5.43;;;2.07;;
12812;SDS011;6471;50.932;6.934;2023-11-19T14:01:22;10.60;;;2.43;;
12812;SDS011;6471;50.932;6.934;2023-11-19T14:03:48;8.07;;;2.67;;
12812;SDS011;6471;50.932;6.934;2023-11-19T14:06:14;5.30;;;2.17;;
12812;SDS011;6471;50.932;6.934;2023-11-19T14:08:40;5.67;;;2.30;;
12812;SDS011;6471;50.932;6.934;2023-11-19T14:11:06;7.87;;;2.20;;
12812;SDS011;6471;50.932;6.934;2023-11-19T14:13:32;5.03;;;2.40;;
12812;SDS011;6471;50.932;6.934;2023-11-19T14:15:59;7.40;;;2.40;;
12812;SDS011;6471;50.932;6.934;2023-11-19T14:18:25;7.93;;;2.67;;
12812;SDS011;6471;50.932;6.934;2023-11-19T14:20:51;6.33;;;2.30;;
12812;SDS011;6471;50.932;6.934;2023-11-19T14:23:17;7.63;;;2.20;;
12812;SDS011;6471;50.932;6.934;2023-11-19T14:25:44;6.13;;;2.20;;
12812;SDS011;6471;50.932;6.934;2023-11-19T14:28:10;4.67;;;2.10;;
12812;SDS011;6471;50.932;6.934;2023-11-19T14:30:36;4.63;;;1.80;;
12812;SDS011;6471;50.932;6.934;2023-11-19T14:33:03;11.10;;;2.80;;
12812;SDS011;6471;50.932;6.934;2023-11-19T14:35:30;6.80;;;2.53;;
12812;SDS011;6471;50.932;6.934;2023-11-19T14:37:57;6.93;;;2.27;;
12812;SDS011;6471;50.932;6.934;2023-11-19T14:40:24;9.20;;;2.43;;
12812;SDS011;6471;50.932;6.934;2023-11-19T14:42:50;11.97;;;5.83;;
12812;SDS011;6471;50.932;6.934;2023-11-19T14:45:17;10.60;;;3.60;;
12812;SDS011;6471;50.932;6.934;2023-11-19T14:47:43;9.43;;;3.30;;
12812;SDS011;6471;50.932;6.934;2023-11-19T14:50:10;7.30;;;2.60;;
12812;SDS011;6471;50.932;6.934;2023-11-19T14:52:36;7.27;;;2.50;;
12812;SDS011;6471;50.932;6.934;2023-11-19T14:55:03;5.87;;;2.30;;
12812;SDS011;6471;50.932;6.934;2023-11-19T14:57:29;6.33;;;2.30;;
12812;SDS011;6471;50.932;6.934;2023-11-19T14:59:55;4.63;;;2.17;;
12812;SDS011;6471;50.932;6.934;2023-11-19T15:02:21;5.00;;;1.93;;
12812;SDS011;6471;50.932;6.934;2023-11-19T15:04:47;6.37;;;2.10;;
12812;SDS011;6471;50.932;6.934;2023-11-19T15:07:14;7.77;;;2.37;;
12812;SDS011;6471;50.932;6.934;2023-11-19T15:09:40;6.60;;;2.20;;
12812;SDS011;6471;50.932;6.934;2023-11-19T15:12:06;7.83;;;2.17;;
12812;SDS011;6471;50.932;6.934;2023-11-19T15:14:32;5.93;;;2.23;;
12812;SDS011;6471;50.932;6.934;2023-11-19T15:16:58;8.03;;;2.17;;
12812;SDS011;6471;50.932;6.934;2023-11-19T15:19:24;6.47;;;2.00;;
12812;SDS011;6471;50.932;6.934;2023-11-19T15:21:50;7.13;;;2.43;;